createdAt,value
2019-05-20T00:02:04.481Z,97.45
2019-05-20T00:04:32.935Z,94.40
2019-05-20T00:07:01.390Z,90.62
2019-05-20T00:09:29.822Z,94.95
2019-05-20T00:11:58.284Z,96.10
2019-05-20T00:14:26.719Z,92.65
2019-05-20T00:16:55.168Z,95.55
2019-05-20T00:19:23.636Z,106.47
2019-05-20T00:21:52.108Z,101.27
2019-05-20T00:24:20.573Z,103.55
2019-05-20T00:26:49.027Z,103.10
2019-05-20T00:29:17.473Z,104.97
2019-05-20T00:31:45.910Z,108.37
2019-05-20T00:34:14.353Z,111.10
2019-05-20T00:36:42.821Z,106.60
2019-05-20T00:39:20.615Z,107.30
2019-05-20T00:41:49.450Z,102.67
2019-05-20T00:44:18.504Z,109.55
2019-05-20T00:46:47.041Z,103.87
2019-05-20T00:49:15.492Z,112.22
2019-05-20T00:51:43.956Z,105.70
2019-05-20T00:54:12.567Z,113.75
2019-05-20T00:56:41.091Z,109.05
2019-05-20T00:59:09.871Z,104.95
2019-05-20T01:01:38.351Z,93.80
2019-05-20T01:04:06.853Z,106.03
2019-05-20T01:06:35.303Z,102.27
2019-05-20T01:09:06.565Z,102.42
2019-05-20T01:11:35.028Z,114.05
2019-05-20T01:14:03.537Z,107.58
2019-05-20T01:16:32.000Z,113.45
2019-05-20T01:19:00.450Z,111.17
2019-05-20T01:21:28.902Z,113.95
2019-05-20T01:23:57.364Z,115.37
2019-05-20T01:26:25.812Z,124.62
2019-05-20T01:28:54.261Z,116.80
2019-05-20T01:31:22.717Z,129.70
2019-05-20T01:33:51.172Z,118.60
2019-05-20T01:36:19.619Z,122.78
2019-05-20T01:38:48.070Z,114.25
2019-05-20T01:41:16.529Z,127.12
2019-05-20T01:43:45.057Z,106.32
2019-05-20T01:46:13.508Z,101.87
2019-05-20T01:48:41.968Z,127.97
2019-05-20T01:51:10.495Z,128.45
2019-05-20T01:53:38.952Z,122.85
2019-05-20T01:56:07.408Z,118.57
2019-05-20T01:58:35.843Z,122.13
2019-05-20T02:01:04.320Z,117.55
2019-05-20T02:03:32.834Z,119.85
2019-05-20T02:06:04.076Z,111.50
2019-05-20T02:08:32.515Z,110.03
2019-05-20T02:11:00.968Z,113.25
2019-05-20T02:13:48.163Z,111.65
2019-05-20T02:16:17.096Z,112.10
2019-05-20T02:18:45.546Z,108.12
2019-05-20T02:21:13.995Z,108.72
2019-05-20T02:23:42.447Z,97.57
2019-05-20T02:26:10.896Z,95.53
2019-05-20T02:28:39.350Z,98.25
2019-05-20T02:31:09.255Z,112.03
2019-05-20T02:33:50.691Z,98.70
2019-05-20T02:36:07.960Z,104.25
2019-05-20T02:38:36.563Z,111.30
2019-05-20T02:41:05.262Z,103.05
2019-05-20T02:43:33.713Z,105.45
2019-05-20T02:46:02.923Z,107.70
2019-05-20T02:48:31.387Z,120.50
2019-05-20T02:50:59.846Z,111.72
2019-05-20T02:53:28.291Z,118.87
2019-05-20T02:55:56.744Z,118.80
2019-05-20T02:58:25.183Z,109.30
2019-05-20T03:00:53.637Z,105.58
2019-05-20T03:03:22.081Z,103.67
2019-05-20T03:05:50.547Z,111.25
2019-05-20T03:08:19.001Z,126.10
2019-05-20T03:10:47.455Z,114.47
2019-05-20T03:13:15.920Z,108.72
2019-05-20T03:15:44.364Z,101.53
2019-05-20T03:18:12.827Z,107.97
2019-05-20T03:20:41.274Z,113.80
2019-05-20T03:23:09.800Z,95.17
2019-05-20T03:25:38.255Z,114.10
2019-05-20T03:28:06.696Z,109.78
2019-05-20T03:30:35.183Z,103.05
2019-05-20T03:33:04.032Z,109.67
2019-05-20T03:35:32.537Z,109.37
2019-05-20T03:38:00.993Z,106.65
2019-05-20T03:40:29.519Z,100.22
2019-05-20T03:42:58.039Z,112.95
2019-05-20T03:45:26.479Z,105.30
2019-05-20T03:47:54.932Z,113.12
2019-05-20T03:50:23.373Z,108.07
2019-05-20T03:52:51.824Z,102.38
2019-05-20T03:55:20.257Z,99.07
2019-05-20T03:57:48.733Z,97.80
2019-05-20T04:00:20.257Z,97.60
2019-05-20T04:02:48.705Z,81.57
2019-05-20T04:05:17.160Z,82.50
2019-05-20T04:07:45.606Z,79.65
2019-05-20T04:10:14.209Z,76.67
2019-05-20T04:12:42.644Z,77.17
2019-05-20T04:15:11.235Z,70.83
2019-05-20T04:17:39.686Z,71.28
2019-05-20T04:20:08.296Z,79.10
2019-05-20T04:22:36.825Z,67.25
2019-05-20T04:25:07.042Z,67.90
2019-05-20T04:27:35.638Z,66.80
2019-05-20T04:30:06.300Z,68.75
2019-05-20T04:32:34.752Z,65.65
2019-05-20T04:35:20.734Z,61.25
2019-05-20T04:37:33.647Z,67.08
2019-05-20T04:40:02.174Z,64.25
2019-05-20T04:42:30.693Z,67.30
2019-05-20T04:45:00.424Z,59.98
2019-05-20T04:47:28.863Z,63.10
2019-05-20T04:49:57.329Z,66.53
2019-05-20T04:52:25.844Z,57.20
2019-05-20T04:54:54.289Z,60.78
2019-05-20T04:57:22.744Z,60.45
2019-05-20T04:59:51.173Z,54.58
2019-05-20T05:02:19.616Z,57.83
2019-05-20T05:04:48.072Z,48.95
2019-05-20T05:07:16.596Z,50.60
2019-05-20T05:09:45.039Z,45.98
2019-05-20T05:12:13.802Z,49.73
2019-05-20T05:14:42.249Z,55.45
2019-05-20T05:17:10.762Z,56.58
2019-05-20T05:19:39.207Z,52.60
2019-05-20T05:22:07.720Z,47.00
2019-05-20T05:24:36.251Z,43.58
2019-05-20T05:27:04.752Z,50.52
2019-05-20T05:29:33.213Z,47.10
2019-05-20T05:32:01.689Z,38.88
2019-05-20T05:34:30.188Z,50.30
2019-05-20T05:36:58.638Z,39.18
2019-05-20T05:39:27.088Z,40.92
2019-05-20T05:41:55.621Z,44.13
2019-05-20T05:44:24.067Z,45.78
2019-05-20T05:46:52.525Z,41.80
2019-05-20T05:49:20.981Z,48.02
2019-05-20T05:51:49.423Z,43.92
2019-05-20T05:54:17.875Z,47.45
2019-05-20T05:56:46.319Z,43.35
2019-05-20T05:59:14.841Z,49.55
2019-05-20T06:01:43.373Z,51.37
2019-05-20T06:04:11.820Z,53.60
2019-05-20T06:06:40.303Z,63.02
2019-05-20T06:09:08.816Z,55.12
2019-05-20T06:11:37.269Z,52.83
2019-05-20T06:14:05.779Z,48.17
2019-05-20T06:16:36.757Z,52.40
2019-05-20T06:19:04.401Z,46.20
2019-05-20T06:21:32.842Z,40.90
2019-05-20T06:24:01.309Z,43.87
2019-05-20T06:26:29.756Z,43.20
2019-05-20T06:28:58.215Z,50.05
2019-05-20T06:31:26.671Z,47.27
2019-05-20T06:33:55.123Z,39.38
2019-05-20T06:36:26.948Z,59.77
2019-05-20T06:38:55.519Z,60.12
2019-05-20T06:41:23.951Z,51.50
2019-05-20T06:43:52.413Z,53.92
2019-05-20T06:46:20.851Z,55.65
2019-05-20T06:48:49.300Z,53.68
2019-05-20T06:51:17.759Z,54.18
2019-05-20T06:53:46.195Z,53.58
2019-05-20T06:56:17.259Z,55.35
2019-05-20T06:58:45.708Z,52.58
2019-05-20T07:01:14.153Z,51.75
2019-05-20T07:03:42.621Z,55.10
2019-05-20T07:06:11.069Z,52.93
2019-05-20T07:08:39.601Z,56.13
2019-05-20T07:11:09.780Z,54.65
2019-05-20T07:13:39.833Z,57.75
2019-05-20T07:16:08.281Z,52.95
2019-05-20T07:18:36.818Z,59.18
2019-05-20T07:21:05.347Z,61.35
2019-05-20T07:23:33.860Z,58.42
2019-05-20T07:26:02.356Z,59.55
2019-05-20T07:28:30.860Z,56.45
2019-05-20T07:30:59.399Z,59.90
2019-05-20T07:33:27.850Z,54.65
2019-05-20T07:35:56.299Z,58.85
2019-05-20T07:38:24.754Z,57.38
2019-05-20T07:40:53.203Z,55.92
2019-05-20T07:43:21.648Z,56.37
2019-05-20T07:45:50.432Z,57.88
2019-05-20T07:48:19.279Z,57.08
2019-05-20T07:50:49.021Z,67.42
2019-05-20T07:53:18.303Z,53.15
2019-05-20T07:55:49.845Z,62.85
2019-05-20T07:58:21.414Z,55.03
2019-05-20T08:00:49.865Z,62.25
2019-05-20T08:03:18.309Z,59.88
2019-05-20T08:05:49.691Z,64.58
2019-05-20T08:08:18.140Z,65.42
2019-05-20T08:10:46.607Z,59.95
2019-05-20T08:13:15.039Z,71.35
2019-05-20T08:15:43.497Z,70.47
2019-05-20T08:18:11.935Z,70.62
2019-05-20T08:20:40.460Z,74.22
2019-05-20T08:23:08.908Z,72.00
2019-05-20T08:25:37.452Z,66.57
2019-05-20T08:28:05.891Z,77.87
2019-05-20T08:30:36.843Z,70.65
2019-05-20T08:33:06.239Z,79.75
2019-05-20T08:35:34.683Z,81.15
2019-05-20T08:38:03.290Z,71.62
2019-05-20T08:40:31.747Z,78.52
2019-05-20T08:43:00.216Z,71.22
2019-05-20T08:45:28.652Z,64.35
2019-05-20T08:47:57.107Z,64.30
2019-05-20T08:50:25.556Z,69.10
2019-05-20T08:52:53.994Z,69.77
2019-05-20T08:55:22.457Z,65.87
2019-05-20T08:57:50.897Z,67.22
2019-05-20T09:00:24.378Z,62.83
2019-05-20T09:02:51.967Z,62.20
2019-05-20T09:05:20.560Z,59.90
2019-05-20T09:08:02.395Z,54.30
2019-05-20T09:10:20.390Z,55.90
2019-05-20T09:12:48.852Z,56.65
2019-05-20T09:15:17.541Z,56.70
2019-05-20T09:17:45.999Z,55.80
2019-05-20T09:20:15.064Z,56.13
2019-05-20T09:22:45.164Z,58.83
2019-05-20T09:25:14.363Z,51.70
2019-05-20T09:27:46.004Z,55.40
2019-05-20T09:30:14.560Z,56.15
2019-05-20T09:32:43.440Z,57.10
2019-05-20T09:35:12.197Z,52.98
2019-05-20T09:37:40.760Z,51.63
2019-05-20T09:40:09.956Z,56.50
2019-05-20T09:42:40.849Z,53.68
2019-05-20T09:45:09.024Z,54.93
2019-05-20T09:47:37.543Z,55.28
2019-05-20T09:50:06.738Z,56.23
2019-05-20T09:52:35.261Z,54.60
2019-05-20T09:55:07.390Z,50.73
2019-05-20T09:57:35.845Z,53.02
2019-05-20T10:00:07.062Z,53.38
2019-05-20T10:02:38.293Z,45.33
2019-05-20T10:05:06.739Z,51.60
2019-05-20T10:07:35.199Z,46.70
2019-05-20T10:10:06.261Z,47.73
2019-05-20T10:12:45.419Z,48.17
2019-05-20T10:15:06.991Z,50.75
2019-05-20T10:17:35.506Z,41.92
2019-05-20T10:20:06.255Z,47.13
2019-05-20T10:22:37.709Z,50.33
2019-05-20T10:25:07.780Z,48.02
2019-05-20T10:27:36.334Z,51.48
2019-05-20T10:30:10.062Z,47.90
2019-05-20T10:32:38.521Z,47.25
2019-05-20T10:35:07.553Z,50.95
2019-05-20T10:37:36.006Z,50.55
2019-05-20T10:40:05.578Z,45.08
2019-05-20T10:42:34.047Z,46.88
2019-05-20T10:45:02.900Z,43.65
2019-05-20T10:47:31.591Z,46.98
2019-05-20T10:50:00.078Z,44.25
2019-05-20T10:52:28.536Z,46.83
2019-05-20T10:54:57.060Z,41.53
2019-05-20T10:57:25.513Z,40.33
2019-05-20T10:59:53.967Z,41.33
2019-05-20T11:02:22.394Z,42.38
2019-05-20T11:04:50.958Z,39.30
2019-05-20T11:07:19.467Z,36.98
2019-05-20T11:09:47.912Z,37.78
2019-05-20T11:12:16.396Z,37.20
2019-05-20T11:14:44.942Z,34.27
2019-05-20T11:17:15.201Z,36.38
2019-05-20T11:19:43.572Z,35.78
2019-05-20T11:22:12.142Z,38.13
2019-05-20T11:24:40.592Z,36.00
2019-05-20T11:27:09.046Z,32.45
2019-05-20T11:29:37.508Z,40.67
2019-05-20T11:32:06.019Z,38.53
2019-05-20T11:34:35.490Z,34.23
2019-05-20T11:37:03.986Z,35.20
2019-05-20T11:39:34.119Z,40.95
2019-05-20T11:42:02.733Z,38.15
2019-05-20T11:44:31.195Z,35.92
2019-05-20T11:46:59.653Z,31.68
2019-05-20T11:49:29.259Z,32.23
2019-05-20T11:51:58.016Z,41.08
2019-05-20T11:54:26.519Z,32.15
2019-05-20T11:56:55.022Z,35.17
2019-05-20T11:59:23.469Z,31.02
2019-05-20T12:01:51.956Z,34.45
2019-05-20T12:04:22.135Z,32.60
2019-05-20T12:06:50.658Z,33.30
2019-05-20T12:09:19.111Z,33.05
2019-05-20T12:11:47.559Z,30.70
2019-05-20T12:14:16.026Z,34.18
2019-05-20T12:16:44.523Z,30.27
2019-05-20T12:19:12.981Z,34.08
2019-05-20T12:21:41.435Z,32.98
2019-05-20T12:24:09.987Z,32.03
2019-05-20T12:26:38.494Z,32.10
2019-05-20T12:29:06.961Z,34.27
2019-05-20T12:31:35.412Z,31.35
2019-05-20T12:34:03.851Z,31.17
2019-05-20T12:36:32.308Z,34.35
2019-05-20T12:39:00.770Z,31.57
2019-05-20T12:41:29.324Z,28.98
2019-05-20T12:44:10.996Z,32.15
2019-05-20T12:46:28.048Z,28.70
2019-05-20T12:48:56.533Z,28.50
2019-05-20T12:51:25.201Z,28.23
2019-05-20T12:53:53.638Z,31.23
2019-05-20T12:56:22.094Z,28.75
2019-05-20T12:58:50.551Z,28.30
2019-05-20T13:01:18.998Z,28.77
2019-05-20T13:03:47.584Z,34.48
2019-05-20T13:06:16.035Z,31.10
2019-05-20T13:08:44.560Z,32.90
2019-05-20T13:11:13.040Z,28.73
2019-05-20T13:13:41.492Z,34.25
2019-05-20T13:16:09.949Z,34.55
2019-05-20T13:18:53.298Z,32.10
2019-05-20T13:21:08.644Z,30.80
2019-05-20T13:23:37.083Z,27.07
2019-05-20T13:26:05.548Z,31.15
2019-05-20T13:28:33.987Z,32.58
2019-05-20T13:31:02.469Z,31.48
2019-05-20T13:33:30.975Z,29.82
2019-05-20T13:35:59.497Z,32.78
2019-05-20T13:38:27.975Z,30.60
2019-05-20T13:40:56.439Z,31.82
2019-05-20T13:43:26.444Z,34.27
2019-05-20T13:45:54.892Z,33.75
2019-05-20T13:48:23.418Z,33.67
2019-05-20T13:50:51.881Z,35.45
2019-05-20T13:53:20.400Z,36.77
2019-05-20T13:55:48.865Z,38.38
2019-05-20T13:58:17.526Z,39.63
2019-05-20T14:00:46.015Z,42.80
2019-05-20T14:03:14.532Z,43.28
2019-05-20T14:05:43.903Z,45.38
2019-05-20T14:08:12.570Z,36.63
2019-05-20T14:10:42.117Z,38.90
2019-05-20T14:13:10.943Z,46.25
2019-05-20T14:15:39.475Z,46.13
2019-05-20T14:18:07.916Z,41.95
2019-05-20T14:20:36.365Z,46.50
2019-05-20T14:23:06.381Z,40.70
2019-05-20T14:25:35.578Z,40.75
2019-05-20T14:28:05.603Z,44.50
2019-05-20T14:30:34.031Z,42.08
2019-05-20T14:33:02.636Z,37.38
2019-05-20T14:35:31.167Z,39.70
2019-05-20T14:37:59.623Z,36.40
2019-05-20T14:40:28.084Z,37.95
2019-05-20T14:42:56.579Z,32.80
2019-05-20T14:45:25.045Z,33.67
2019-05-20T14:47:53.497Z,30.17
2019-05-20T14:50:21.967Z,32.25
2019-05-20T14:52:50.423Z,30.17
2019-05-20T14:55:18.892Z,28.42
2019-05-20T14:57:47.385Z,26.62
2019-05-20T15:00:16.079Z,26.30
2019-05-20T15:02:44.537Z,26.50
2019-05-20T15:05:13.534Z,24.32
2019-05-20T15:07:41.979Z,28.65
2019-05-20T15:10:11.268Z,24.45
2019-05-20T15:12:40.027Z,21.80
2019-05-20T15:15:09.326Z,24.47
2019-05-20T15:17:39.106Z,23.30
2019-05-20T15:20:08.384Z,21.75
2019-05-20T15:22:36.844Z,23.07
2019-05-20T15:25:09.678Z,23.70
2019-05-20T15:27:38.119Z,20.82
2019-05-20T15:30:08.888Z,22.37
2019-05-20T15:32:37.336Z,23.92
2019-05-20T15:35:06.530Z,22.13
2019-05-20T15:37:34.967Z,25.40
2019-05-20T15:40:04.102Z,26.65
2019-05-20T15:42:32.625Z,27.87
2019-05-20T15:45:01.109Z,27.45
2019-05-20T15:47:29.586Z,30.23
2019-05-20T15:49:58.046Z,31.65
2019-05-20T15:52:26.599Z,28.80
2019-05-20T15:54:55.112Z,32.67
2019-05-20T15:57:23.689Z,30.68
2019-05-20T15:59:52.161Z,29.52
2019-05-20T16:02:21.617Z,25.72
2019-05-20T16:04:50.148Z,31.60
2019-05-20T16:07:18.620Z,27.05
2019-05-20T16:09:47.170Z,28.67
2019-05-20T16:12:15.670Z,21.93
2019-05-20T16:14:44.211Z,27.90
2019-05-20T16:17:12.672Z,29.40
2019-05-20T16:19:41.128Z,26.97
2019-05-20T16:22:09.601Z,25.85
2019-05-20T16:24:38.106Z,24.55
2019-05-20T16:27:06.576Z,27.02
2019-05-20T16:29:35.028Z,26.00
2019-05-20T16:32:03.558Z,26.12
2019-05-20T16:34:33.537Z,26.42
2019-05-20T16:37:02.176Z,31.62
2019-05-20T16:39:31.175Z,24.63
2019-05-20T16:41:59.747Z,28.67
2019-05-20T16:44:28.247Z,29.02
2019-05-20T16:46:56.718Z,28.23
2019-05-20T16:49:25.182Z,27.67
2019-05-20T16:51:53.634Z,29.12
2019-05-20T16:54:22.091Z,29.25
2019-05-20T16:56:50.537Z,28.07
2019-05-20T16:59:18.983Z,27.22
2019-05-20T17:01:47.429Z,26.50
2019-05-20T17:04:15.884Z,22.93
2019-05-20T17:06:44.329Z,25.08
2019-05-20T17:09:12.798Z,24.20
2019-05-20T17:11:41.241Z,21.75
2019-05-20T17:14:10.713Z,21.23
2019-05-20T17:16:39.595Z,20.57
2019-05-20T17:19:08.050Z,19.65
2019-05-20T17:21:36.525Z,19.00
2019-05-20T17:24:04.994Z,20.50
2019-05-20T17:26:33.435Z,19.70
2019-05-20T17:29:01.920Z,18.95
2019-05-20T17:31:31.028Z,31.95
2019-05-20T17:33:59.500Z,23.75
2019-05-20T17:36:28.016Z,20.12
2019-05-20T17:38:56.567Z,21.20
2019-05-20T17:41:25.080Z,21.20
2019-05-20T17:43:53.561Z,21.10
2019-05-20T17:46:22.165Z,21.40
2019-05-20T17:48:50.696Z,17.50
2019-05-20T17:51:21.660Z,20.65
2019-05-20T17:53:50.114Z,19.15
2019-05-20T17:56:18.556Z,17.92
2019-05-20T17:58:47.008Z,19.15
2019-05-20T18:01:16.196Z,19.52
2019-05-20T18:03:44.975Z,20.40
2019-05-20T18:06:13.484Z,17.35
2019-05-20T18:08:43.579Z,20.50
2019-05-20T18:11:12.092Z,62.98
2019-05-20T18:13:40.539Z,18.65
2019-05-20T18:16:08.991Z,22.62
2019-05-20T18:18:37.444Z,17.10
2019-05-20T18:21:05.889Z,30.88
2019-05-20T18:23:34.340Z,19.92
2019-05-20T18:26:03.640Z,18.00
2019-05-20T18:28:32.321Z,21.33
2019-05-20T18:31:00.765Z,20.27
2019-05-20T18:33:29.219Z,29.77
2019-05-20T18:35:57.717Z,19.67
2019-05-20T18:38:26.199Z,26.55
2019-05-20T18:40:54.745Z,17.62
2019-05-20T18:43:23.207Z,22.73
2019-05-20T18:45:51.639Z,20.15
2019-05-20T18:48:20.091Z,16.85
2019-05-20T18:50:48.554Z,15.72
2019-05-20T18:53:17.185Z,41.75
2019-05-20T18:55:45.646Z,14.18
2019-05-20T18:58:14.144Z,16.00
2019-05-20T19:00:42.612Z,38.78
2019-05-20T19:03:11.192Z,22.98
2019-05-20T19:05:39.670Z,37.65
2019-05-20T19:08:08.121Z,17.30
2019-05-20T19:10:36.562Z,14.20
2019-05-20T19:13:05.270Z,16.32
2019-05-20T19:15:33.940Z,16.45
2019-05-20T19:18:02.402Z,13.18
2019-05-20T19:20:30.834Z,13.15
2019-05-20T19:22:59.295Z,18.30
2019-05-20T19:25:37.534Z,16.75
2019-05-20T19:27:57.916Z,13.38
2019-05-20T19:30:26.521Z,13.40
2019-05-20T19:32:55.035Z,21.37
2019-05-20T19:35:23.574Z,12.15
2019-05-20T19:37:52.015Z,26.42
2019-05-20T19:40:20.480Z,19.10
2019-05-20T19:42:48.949Z,19.00
2019-05-20T19:45:17.408Z,75.67
2019-05-20T19:47:45.853Z,22.17
2019-05-20T19:50:14.576Z,36.35
2019-05-20T19:52:43.057Z,17.45
2019-05-20T19:55:11.656Z,17.07
2019-05-20T19:57:40.174Z,18.27
2019-05-20T20:00:09.059Z,18.52
2019-05-20T20:02:37.537Z,17.62
2019-05-20T20:05:09.155Z,18.80
2019-05-20T20:07:40.380Z,19.00
2019-05-20T20:10:09.756Z,18.73
2019-05-20T20:12:38.196Z,18.45
2019-05-20T20:15:07.195Z,21.02
2019-05-20T20:17:35.646Z,22.37
2019-05-20T20:20:05.826Z,20.88
2019-05-20T20:22:34.343Z,26.07
2019-05-20T20:25:02.967Z,25.20
2019-05-20T20:27:31.409Z,27.65
2019-05-20T20:29:59.857Z,27.00
2019-05-20T20:32:37.914Z,29.35
2019-05-20T20:34:58.508Z,29.10
2019-05-20T20:37:26.973Z,30.20
2019-05-20T20:39:55.407Z,28.55
2019-05-20T20:42:23.859Z,30.57
2019-05-20T20:44:52.298Z,31.02
2019-05-20T20:47:20.819Z,36.00
2019-05-20T20:49:50.808Z,39.92
2019-05-20T20:52:19.252Z,41.92
2019-05-20T20:54:47.691Z,52.62
2019-05-20T20:57:16.149Z,50.48
2019-05-20T20:59:44.611Z,60.73
2019-05-20T21:02:13.066Z,57.90
2019-05-20T21:04:41.596Z,64.95
2019-05-20T21:07:10.154Z,70.37
2019-05-20T21:09:38.594Z,74.20
2019-05-20T21:12:07.043Z,82.55
2019-05-20T21:14:35.499Z,85.25
2019-05-20T21:17:04.246Z,89.67
2019-05-20T21:19:32.968Z,77.95
2019-05-20T21:22:01.471Z,95.53
2019-05-20T21:24:29.914Z,85.95
2019-05-20T21:26:59.353Z,87.00
2019-05-20T21:29:27.791Z,95.12
2019-05-20T21:31:56.239Z,90.83
2019-05-20T21:34:24.681Z,99.20
2019-05-20T21:36:53.131Z,92.57
2019-05-20T21:39:21.580Z,95.57
2019-05-20T21:41:50.036Z,90.77
2019-05-20T21:44:18.489Z,89.37
2019-05-20T21:46:46.932Z,94.32
2019-05-20T21:49:15.387Z,96.67
2019-05-20T21:51:43.839Z,118.30
2019-05-20T21:54:12.316Z,118.15
2019-05-20T21:56:40.782Z,126.20
2019-05-20T21:59:09.235Z,126.05
2019-05-20T22:01:38.339Z,127.58
2019-05-20T22:04:06.807Z,115.08
2019-05-20T22:06:35.274Z,110.52
2019-05-20T22:09:04.784Z,116.67
2019-05-20T22:11:54.731Z,110.50
2019-05-20T22:14:23.171Z,127.92
2019-05-20T22:16:51.633Z,122.28
2019-05-20T22:19:20.075Z,126.30
2019-05-20T22:21:52.968Z,120.65
2019-05-20T22:24:22.130Z,130.15
2019-05-20T22:26:50.644Z,129.23
2019-05-20T22:29:19.096Z,123.42
2019-05-20T22:31:47.544Z,120.92
2019-05-20T22:34:16.000Z,125.80
2019-05-20T22:36:44.515Z,128.12
2019-05-20T22:39:15.002Z,132.30
2019-05-20T22:41:43.164Z,125.60
2019-05-20T22:44:11.603Z,117.75
2019-05-20T22:46:40.059Z,118.95
2019-05-20T22:49:08.502Z,122.98
2019-05-20T22:51:36.953Z,113.68
2019-05-20T22:54:05.429Z,104.78
2019-05-20T22:56:33.935Z,104.17
2019-05-20T22:59:02.482Z,116.35
2019-05-20T23:01:30.914Z,101.47
2019-05-20T23:03:59.379Z,106.95
2019-05-20T23:06:27.887Z,103.65
2019-05-20T23:08:56.343Z,112.47
2019-05-20T23:11:24.799Z,106.12
2019-05-20T23:13:53.261Z,109.27
2019-05-20T23:16:21.711Z,100.30
2019-05-20T23:18:50.155Z,110.78
2019-05-20T23:21:18.606Z,101.78
2019-05-20T23:23:47.056Z,104.30
2019-05-20T23:26:15.507Z,112.42
2019-05-20T23:28:44.431Z,117.35
2019-05-20T23:31:12.884Z,120.45
2019-05-20T23:33:41.328Z,128.00
2019-05-20T23:36:09.769Z,125.02
2019-05-20T23:38:38.300Z,119.45
2019-05-20T23:41:06.808Z,108.90
2019-05-20T23:43:35.297Z,116.82
2019-05-20T23:46:03.746Z,124.87
2019-05-20T23:48:32.198Z,114.35
2019-05-20T23:51:00.662Z,105.90
2019-05-20T23:53:29.108Z,117.00
2019-05-20T23:55:57.566Z,112.60
2019-05-20T23:58:26.013Z,107.75
